sensor_id;sensor_type;location;lat;lon;timestamp;temperature;humidity
75615;DHT22;64199;48.578;-4.520;2023-04-24T00:00:24;24.50;53.60
75615;DHT22;64199;48.578;-4.520;2023-04-24T00:02:50;24.60;53.60
75615;DHT22;64199;48.578;-4.520;2023-04-24T00:05:17;24.60;53.60
75615;DHT22;64199;48.578;-4.520;2023-04-24T00:07:45;24.70;53.60
75615;DHT22;64199;48.578;-4.520;2023-04-24T00:10:11;24.70;53.60
75615;DHT22;64199;48.578;-4.520;2023-04-24T00:12:38;24.70;53.60
75615;DHT22;64199;48.578;-4.520;2023-04-24T00:15:05;24.80;54.10
75615;DHT22;64199;48.578;-4.520;2023-04-24T00:17:31;24.80;53.60
75615;DHT22;64199;48.578;-4.520;2023-04-24T00:19:57;24.80;53.40
75615;DHT22;64199;48.578;-4.520;2023-04-24T00:22:29;24.90;53.40
75615;DHT22;64199;48.578;-4.520;2023-04-24T00:24:55;24.90;54.00
75615;DHT22;64199;48.578;-4.520;2023-04-24T00:27:21;25.00;53.40
75615;DHT22;64199;48.578;-4.520;2023-04-24T00:29:47;25.00;53.40
75615;DHT22;64199;48.578;-4.520;2023-04-24T00:32:13;25.00;53.30
75615;DHT22;64199;48.578;-4.520;2023-04-24T00:34:40;25.10;53.40
75615;DHT22;64199;48.578;-4.520;2023-04-24T00:37:05;25.10;53.30
75615;DHT22;64199;48.578;-4.520;2023-04-24T00:39:32;25.10;53.20
75615;DHT22;64199;48.578;-4.520;2023-04-24T00:41:58;25.10;53.20
75615;DHT22;64199;48.578;-4.520;2023-04-24T00:44:25;25.20;53.20
75615;DHT22;64199;48.578;-4.520;2023-04-24T00:46:51;25.20;53.10
75615;DHT22;64199;48.578;-4.520;2023-04-24T00:49:20;25.20;53.10
75615;DHT22;64199;48.578;-4.520;2023-04-24T00:51:46;25.20;53.10
75615;DHT22;64199;48.578;-4.520;2023-04-24T00:54:15;25.20;53.10
75615;DHT22;64199;48.578;-4.520;2023-04-24T00:56:42;25.20;53.00
75615;DHT22;64199;48.578;-4.520;2023-04-24T00:59:08;25.20;53.00
75615;DHT22;64199;48.578;-4.520;2023-04-24T01:01:34;25.20;53.00
75615;DHT22;64199;48.578;-4.520;2023-04-24T01:04:00;25.10;53.00
75615;DHT22;64199;48.578;-4.520;2023-04-24T01:06:28;25.00;52.90
75615;DHT22;64199;48.578;-4.520;2023-04-24T01:08:54;25.00;53.00
75615;DHT22;64199;48.578;-4.520;2023-04-24T01:11:22;24.90;52.90
75615;DHT22;64199;48.578;-4.520;2023-04-24T01:13:48;24.90;53.00
75615;DHT22;64199;48.578;-4.520;2023-04-24T01:16:14;24.90;53.00
75615;DHT22;64199;48.578;-4.520;2023-04-24T01:18:43;24.90;53.00
75615;DHT22;64199;48.578;-4.520;2023-04-24T01:21:09;24.80;52.80
75615;DHT22;64199;48.578;-4.520;2023-04-24T01:23:38;24.70;52.80
75615;DHT22;64199;48.578;-4.520;2023-04-24T01:26:04;24.70;52.90
75615;DHT22;64199;48.578;-4.520;2023-04-24T01:28:30;24.60;52.90
75615;DHT22;64199;48.578;-4.520;2023-04-24T01:30:56;24.60;52.90
75615;DHT22;64199;48.578;-4.520;2023-04-24T01:33:23;24.50;52.80
75615;DHT22;64199;48.578;-4.520;2023-04-24T01:35:49;24.50;52.90
75615;DHT22;64199;48.578;-4.520;2023-04-24T01:38:16;24.50;53.00
75615;DHT22;64199;48.578;-4.520;2023-04-24T01:40:42;24.40;52.90
75615;DHT22;64199;48.578;-4.520;2023-04-24T01:43:09;24.40;53.60
75615;DHT22;64199;48.578;-4.520;2023-04-24T01:45:35;24.30;52.90
75615;DHT22;64199;48.578;-4.520;2023-04-24T01:48:01;24.30;53.00
75615;DHT22;64199;48.578;-4.520;2023-04-24T01:50:27;24.30;53.10
75615;DHT22;64199;48.578;-4.520;2023-04-24T01:52:53;24.20;53.10
75615;DHT22;64199;48.578;-4.520;2023-04-24T01:55:19;24.20;53.10
75615;DHT22;64199;48.578;-4.520;2023-04-24T01:57:45;24.10;53.10
75615;DHT22;64199;48.578;-4.520;2023-04-24T02:00:12;24.10;53.20
75615;DHT22;64199;48.578;-4.520;2023-04-24T02:02:39;24.10;53.20
75615;DHT22;64199;48.578;-4.520;2023-04-24T02:05:07;24.00;53.20
75615;DHT22;64199;48.578;-4.520;2023-04-24T02:07:33;24.00;53.20
75615;DHT22;64199;48.578;-4.520;2023-04-24T02:09:59;23.90;53.20
75615;DHT22;64199;48.578;-4.520;2023-04-24T02:12:25;23.90;53.10
75615;DHT22;64199;48.578;-4.520;2023-04-24T02:14:51;23.90;53.20
75615;DHT22;64199;48.578;-4.520;2023-04-24T02:17:17;23.90;53.20
75615;DHT22;64199;48.578;-4.520;2023-04-24T02:19:45;23.80;53.20
75615;DHT22;64199;48.578;-4.520;2023-04-24T02:22:12;23.80;53.20
75615;DHT22;64199;48.578;-4.520;2023-04-24T02:24:38;23.80;53.20
75615;DHT22;64199;48.578;-4.520;2023-04-24T02:27:04;23.80;53.30
75615;DHT22;64199;48.578;-4.520;2023-04-24T02:29:30;23.70;53.30
75615;DHT22;64199;48.578;-4.520;2023-04-24T02:31:56;23.70;53.30
75615;DHT22;64199;48.578;-4.520;2023-04-24T02:34:22;23.70;53.40
75615;DHT22;64199;48.578;-4.520;2023-04-24T02:36:49;23.70;53.40
75615;DHT22;64199;48.578;-4.520;2023-04-24T02:39:15;23.70;53.40
75615;DHT22;64199;48.578;-4.520;2023-04-24T02:41:44;23.60;53.50
75615;DHT22;64199;48.578;-4.520;2023-04-24T02:44:10;23.60;53.50
75615;DHT22;64199;48.578;-4.520;2023-04-24T02:46:36;23.60;53.50
75615;DHT22;64199;48.578;-4.520;2023-04-24T02:49:02;23.60;53.50
75615;DHT22;64199;48.578;-4.520;2023-04-24T02:51:30;23.50;53.50
75615;DHT22;64199;48.578;-4.520;2023-04-24T02:53:56;23.50;53.60
75615;DHT22;64199;48.578;-4.520;2023-04-24T02:56:22;23.50;53.60
75615;DHT22;64199;48.578;-4.520;2023-04-24T02:58:48;23.50;53.60
75615;DHT22;64199;48.578;-4.520;2023-04-24T03:01:14;23.50;53.70
75615;DHT22;64199;48.578;-4.520;2023-04-24T03:03:40;23.50;53.60
75615;DHT22;64199;48.578;-4.520;2023-04-24T03:06:06;23.40;53.50
75615;DHT22;64199;48.578;-4.520;2023-04-24T03:08:34;23.40;53.50
75615;DHT22;64199;48.578;-4.520;2023-04-24T03:11:00;23.40;53.50
75615;DHT22;64199;48.578;-4.520;2023-04-24T03:13:26;23.40;53.50
75615;DHT22;64199;48.578;-4.520;2023-04-24T03:15:52;23.30;53.50
75615;DHT22;64199;48.578;-4.520;2023-04-24T03:18:18;23.30;53.60
75615;DHT22;64199;48.578;-4.520;2023-04-24T03:20:47;23.30;53.60
75615;DHT22;64199;48.578;-4.520;2023-04-24T03:23:13;23.30;54.20
75615;DHT22;64199;48.578;-4.520;2023-04-24T03:25:39;23.30;53.70
75615;DHT22;64199;48.578;-4.520;2023-04-24T03:28:06;23.20;53.60
75615;DHT22;64199;48.578;-4.520;2023-04-24T03:30:32;23.20;53.70
75615;DHT22;64199;48.578;-4.520;2023-04-24T03:32:57;23.20;53.70
75615;DHT22;64199;48.578;-4.520;2023-04-24T03:35:23;23.20;53.70
75615;DHT22;64199;48.578;-4.520;2023-04-24T03:37:49;23.20;53.80
75615;DHT22;64199;48.578;-4.520;2023-04-24T03:40:15;23.10;53.80
75615;DHT22;64199;48.578;-4.520;2023-04-24T03:42:41;23.10;53.90
75615;DHT22;64199;48.578;-4.520;2023-04-24T03:45:08;23.10;53.90
75615;DHT22;64199;48.578;-4.520;2023-04-24T03:47:34;23.10;54.00
75615;DHT22;64199;48.578;-4.520;2023-04-24T03:50:00;23.10;54.00
75615;DHT22;64199;48.578;-4.520;2023-04-24T03:52:25;23.00;54.00
75615;DHT22;64199;48.578;-4.520;2023-04-24T03:54:51;23.00;54.00
75615;DHT22;64199;48.578;-4.520;2023-04-24T03:57:17;23.00;54.50
75615;DHT22;64199;48.578;-4.520;2023-04-24T03:59:50;23.00;53.90
75615;DHT22;64199;48.578;-4.520;2023-04-24T04:02:16;22.90;53.80
75615;DHT22;64199;48.578;-4.520;2023-04-24T04:04:42;22.90;53.90
75615;DHT22;64199;48.578;-4.520;2023-04-24T04:07:09;22.90;54.00
75615;DHT22;64199;48.578;-4.520;2023-04-24T04:09:35;22.90;54.00
75615;DHT22;64199;48.578;-4.520;2023-04-24T04:12:00;23.00;54.10
75615;DHT22;64199;48.578;-4.520;2023-04-24T04:14:27;23.00;54.10
75615;DHT22;64199;48.578;-4.520;2023-04-24T04:16:53;23.10;54.20
75615;DHT22;64199;48.578;-4.520;2023-04-24T04:19:20;23.20;54.10
75615;DHT22;64199;48.578;-4.520;2023-04-24T04:21:46;23.20;54.10
75615;DHT22;64199;48.578;-4.520;2023-04-24T04:24:16;23.30;54.10
75615;DHT22;64199;48.578;-4.520;2023-04-24T04:26:42;23.30;54.00
75615;DHT22;64199;48.578;-4.520;2023-04-24T04:29:13;23.40;53.90
75615;DHT22;64199;48.578;-4.520;2023-04-24T04:31:39;23.40;53.80
75615;DHT22;64199;48.578;-4.520;2023-04-24T04:34:05;23.50;53.70
75615;DHT22;64199;48.578;-4.520;2023-04-24T04:36:33;23.50;53.70
75615;DHT22;64199;48.578;-4.520;2023-04-24T04:39:02;23.50;53.70
75615;DHT22;64199;48.578;-4.520;2023-04-24T04:41:29;23.60;53.60
75615;DHT22;64199;48.578;-4.520;2023-04-24T04:43:55;23.60;53.50
75615;DHT22;64199;48.578;-4.520;2023-04-24T04:46:25;23.70;53.60
75615;DHT22;64199;48.578;-4.520;2023-04-24T04:48:52;23.70;53.50
75615;DHT22;64199;48.578;-4.520;2023-04-24T04:51:18;23.80;53.50
75615;DHT22;64199;48.578;-4.520;2023-04-24T04:53:44;23.80;53.50
75615;DHT22;64199;48.578;-4.520;2023-04-24T04:56:10;23.90;53.50
75615;DHT22;64199;48.578;-4.520;2023-04-24T04:58:36;23.90;53.40
75615;DHT22;64199;48.578;-4.520;2023-04-24T05:01:02;23.90;53.30
75615;DHT22;64199;48.578;-4.520;2023-04-24T05:03:28;24.00;53.30
75615;DHT22;64199;48.578;-4.520;2023-04-24T05:05:54;24.00;53.20
75615;DHT22;64199;48.578;-4.520;2023-04-24T05:08:19;24.10;53.20
75615;DHT22;64199;48.578;-4.520;2023-04-24T05:10:45;24.10;53.20
75615;DHT22;64199;48.578;-4.520;2023-04-24T05:13:11;24.10;53.20
75615;DHT22;64199;48.578;-4.520;2023-04-24T05:15:37;24.10;53.10
75615;DHT22;64199;48.578;-4.520;2023-04-24T05:18:03;24.20;53.20
75615;DHT22;64199;48.578;-4.520;2023-04-24T05:20:29;24.20;53.20
75615;DHT22;64199;48.578;-4.520;2023-04-24T05:22:55;24.30;53.20
75615;DHT22;64199;48.578;-4.520;2023-04-24T05:25:21;24.30;53.20
75615;DHT22;64199;48.578;-4.520;2023-04-24T05:27:47;24.40;53.20
75615;DHT22;64199;48.578;-4.520;2023-04-24T05:30:13;24.40;53.10
75615;DHT22;64199;48.578;-4.520;2023-04-24T05:32:39;24.50;53.10
75615;DHT22;64199;48.578;-4.520;2023-04-24T05:35:05;24.50;53.00
75615;DHT22;64199;48.578;-4.520;2023-04-24T05:37:32;24.50;52.90
75615;DHT22;64199;48.578;-4.520;2023-04-24T05:39:58;24.60;53.00
75615;DHT22;64199;48.578;-4.520;2023-04-24T05:42:24;24.60;53.00
75615;DHT22;64199;48.578;-4.520;2023-04-24T05:44:50;24.70;53.00
75615;DHT22;64199;48.578;-4.520;2023-04-24T05:47:16;24.70;53.00
75615;DHT22;64199;48.578;-4.520;2023-04-24T05:49:42;24.70;52.90
75615;DHT22;64199;48.578;-4.520;2023-04-24T05:52:08;24.80;52.90
75615;DHT22;64199;48.578;-4.520;2023-04-24T05:54:34;24.80;52.80
75615;DHT22;64199;48.578;-4.520;2023-04-24T05:57:01;24.80;52.70
75615;DHT22;64199;48.578;-4.520;2023-04-24T05:59:30;24.90;52.60
75615;DHT22;64199;48.578;-4.520;2023-04-24T06:01:56;24.90;52.50
75615;DHT22;64199;48.578;-4.520;2023-04-24T06:04:22;24.90;52.50
75615;DHT22;64199;48.578;-4.520;2023-04-24T06:06:48;24.90;52.50
75615;DHT22;64199;48.578;-4.520;2023-04-24T06:09:16;24.90;52.50
75615;DHT22;64199;48.578;-4.520;2023-04-24T06:11:43;25.00;52.50
75615;DHT22;64199;48.578;-4.520;2023-04-24T06:14:09;25.00;52.50
75615;DHT22;64199;48.578;-4.520;2023-04-24T06:16:35;25.00;52.40
75615;DHT22;64199;48.578;-4.520;2023-04-24T06:19:01;25.10;52.40
75615;DHT22;64199;48.578;-4.520;2023-04-24T06:21:27;25.10;52.50
75615;DHT22;64199;48.578;-4.520;2023-04-24T06:23:53;25.10;52.50
75615;DHT22;64199;48.578;-4.520;2023-04-24T06:26:20;25.10;52.30
75615;DHT22;64199;48.578;-4.520;2023-04-24T06:28:46;25.10;52.20
75615;DHT22;64199;48.578;-4.520;2023-04-24T06:31:12;25.20;52.30
75615;DHT22;64199;48.578;-4.520;2023-04-24T06:33:38;25.20;52.20
75615;DHT22;64199;48.578;-4.520;2023-04-24T06:36:04;25.20;52.20
75615;DHT22;64199;48.578;-4.520;2023-04-24T06:38:30;25.20;52.10
75615;DHT22;64199;48.578;-4.520;2023-04-24T06:40:55;25.20;52.10
75615;DHT22;64199;48.578;-4.520;2023-04-24T06:43:21;25.30;52.10
75615;DHT22;64199;48.578;-4.520;2023-04-24T06:45:47;25.30;52.00
75615;DHT22;64199;48.578;-4.520;2023-04-24T06:48:13;25.30;52.10
75615;DHT22;64199;48.578;-4.520;2023-04-24T06:50:39;25.30;52.00
75615;DHT22;64199;48.578;-4.520;2023-04-24T06:53:05;25.40;52.00
75615;DHT22;64199;48.578;-4.520;2023-04-24T06:55:31;25.40;52.00
75615;DHT22;64199;48.578;-4.520;2023-04-24T06:57:57;25.40;51.90
75615;DHT22;64199;48.578;-4.520;2023-04-24T07:00:23;25.50;52.00
75615;DHT22;64199;48.578;-4.520;2023-04-24T07:02:49;25.50;51.90
75615;DHT22;64199;48.578;-4.520;2023-04-24T07:05:15;25.50;51.80
75615;DHT22;64199;48.578;-4.520;2023-04-24T07:07:41;25.50;51.80
75615;DHT22;64199;48.578;-4.520;2023-04-24T07:10:08;25.60;51.80
75615;DHT22;64199;48.578;-4.520;2023-04-24T07:12:34;25.60;51.70
75615;DHT22;64199;48.578;-4.520;2023-04-24T07:15:01;25.70;51.70
75615;DHT22;64199;48.578;-4.520;2023-04-24T07:17:27;25.70;51.70
75615;DHT22;64199;48.578;-4.520;2023-04-24T07:19:53;25.70;51.60
75615;DHT22;64199;48.578;-4.520;2023-04-24T07:22:19;25.70;51.60
75615;DHT22;64199;48.578;-4.520;2023-04-24T07:24:45;25.60;51.40
75615;DHT22;64199;48.578;-4.520;2023-04-24T07:27:11;25.50;51.50
75615;DHT22;64199;48.578;-4.520;2023-04-24T07:29:37;25.50;51.50
75615;DHT22;64199;48.578;-4.520;2023-04-24T07:32:03;25.50;51.60
75615;DHT22;64199;48.578;-4.520;2023-04-24T07:34:29;25.40;51.60
75615;DHT22;64199;48.578;-4.520;2023-04-24T07:36:55;25.30;51.60
75615;DHT22;64199;48.578;-4.520;2023-04-24T07:39:21;25.30;51.60
75615;DHT22;64199;48.578;-4.520;2023-04-24T07:41:47;25.20;51.60
75615;DHT22;64199;48.578;-4.520;2023-04-24T07:44:13;25.20;51.70
75615;DHT22;64199;48.578;-4.520;2023-04-24T07:46:39;25.10;51.70
75615;DHT22;64199;48.578;-4.520;2023-04-24T07:49:05;25.00;51.70
75615;DHT22;64199;48.578;-4.520;2023-04-24T07:51:31;25.00;51.80
75615;DHT22;64199;48.578;-4.520;2023-04-24T07:54:00;24.90;51.80
75615;DHT22;64199;48.578;-4.520;2023-04-24T07:56:25;24.90;51.90
75615;DHT22;64199;48.578;-4.520;2023-04-24T07:58:51;24.90;52.00
75615;DHT22;64199;48.578;-4.520;2023-04-24T08:01:17;24.80;52.00
75615;DHT22;64199;48.578;-4.520;2023-04-24T08:03:46;24.70;52.10
75615;DHT22;64199;48.578;-4.520;2023-04-24T08:06:12;24.70;52.20
75615;DHT22;64199;48.578;-4.520;2023-04-24T08:08:37;24.70;52.30
75615;DHT22;64199;48.578;-4.520;2023-04-24T08:11:03;24.60;52.30
75615;DHT22;64199;48.578;-4.520;2023-04-24T08:13:29;24.60;52.40
75615;DHT22;64199;48.578;-4.520;2023-04-24T08:15:56;24.50;52.40
75615;DHT22;64199;48.578;-4.520;2023-04-24T08:18:23;24.50;52.40
75615;DHT22;64199;48.578;-4.520;2023-04-24T08:20:49;24.50;52.40
75615;DHT22;64199;48.578;-4.520;2023-04-24T08:23:15;24.40;52.40
75615;DHT22;64199;48.578;-4.520;2023-04-24T08:25:41;24.40;52.40
75615;DHT22;64199;48.578;-4.520;2023-04-24T08:28:08;24.40;52.50
75615;DHT22;64199;48.578;-4.520;2023-04-24T08:30:34;24.40;52.70
75615;DHT22;64199;48.578;-4.520;2023-04-24T08:33:00;24.30;52.60
75615;DHT22;64199;48.578;-4.520;2023-04-24T08:35:26;24.30;52.70
75615;DHT22;64199;48.578;-4.520;2023-04-24T08:37:53;24.30;52.90
75615;DHT22;64199;48.578;-4.520;2023-04-24T08:40:22;24.30;52.90
75615;DHT22;64199;48.578;-4.520;2023-04-24T08:42:54;24.20;52.90
75615;DHT22;64199;48.578;-4.520;2023-04-24T08:45:21;24.20;52.80
75615;DHT22;64199;48.578;-4.520;2023-04-24T08:47:47;24.20;52.80
75615;DHT22;64199;48.578;-4.520;2023-04-24T08:50:14;24.20;52.70
75615;DHT22;64199;48.578;-4.520;2023-04-24T08:52:42;24.10;52.60
75615;DHT22;64199;48.578;-4.520;2023-04-24T08:55:08;24.10;52.70
75615;DHT22;64199;48.578;-4.520;2023-04-24T08:57:35;24.00;52.60
75615;DHT22;64199;48.578;-4.520;2023-04-24T09:00:04;24.00;52.60
75615;DHT22;64199;48.578;-4.520;2023-04-24T09:02:31;24.00;52.70
75615;DHT22;64199;48.578;-4.520;2023-04-24T09:05:00;23.90;52.70
75615;DHT22;64199;48.578;-4.520;2023-04-24T09:07:27;23.90;52.80
75615;DHT22;64199;48.578;-4.520;2023-04-24T09:09:56;23.90;52.80
75615;DHT22;64199;48.578;-4.520;2023-04-24T09:12:22;23.90;52.80
75615;DHT22;64199;48.578;-4.520;2023-04-24T09:14:48;23.90;52.90
75615;DHT22;64199;48.578;-4.520;2023-04-24T09:17:15;23.90;52.90
75615;DHT22;64199;48.578;-4.520;2023-04-24T09:19:41;23.80;53.00
75615;DHT22;64199;48.578;-4.520;2023-04-24T09:22:08;23.80;53.00
75615;DHT22;64199;48.578;-4.520;2023-04-24T09:24:35;23.80;53.00
75615;DHT22;64199;48.578;-4.520;2023-04-24T09:27:01;23.80;53.00
75615;DHT22;64199;48.578;-4.520;2023-04-24T09:29:28;23.80;53.00
75615;DHT22;64199;48.578;-4.520;2023-04-24T09:31:54;23.80;53.10
75615;DHT22;64199;48.578;-4.520;2023-04-24T09:34:27;23.70;53.00
75615;DHT22;64199;48.578;-4.520;2023-04-24T09:36:53;23.70;53.00
75615;DHT22;64199;48.578;-4.520;2023-04-24T09:39:20;23.70;53.00
75615;DHT22;64199;48.578;-4.520;2023-04-24T09:44:17;23.70;53.00
75615;DHT22;64199;48.578;-4.520;2023-04-24T09:46:44;23.60;53.00
75615;DHT22;64199;48.578;-4.520;2023-04-24T09:49:14;23.60;53.00
75615;DHT22;64199;48.578;-4.520;2023-04-24T09:51:41;23.60;53.00
75615;DHT22;64199;48.578;-4.520;2023-04-24T09:54:27;23.60;53.70
75615;DHT22;64199;48.578;-4.520;2023-04-24T09:56:54;23.60;53.10
75615;DHT22;64199;48.578;-4.520;2023-04-24T09:59:20;23.60;53.20
75615;DHT22;64199;48.578;-4.520;2023-04-24T10:01:47;23.50;53.20
75615;DHT22;64199;48.578;-4.520;2023-04-24T10:04:22;23.50;53.20
75615;DHT22;64199;48.578;-4.520;2023-04-24T10:06:50;23.50;53.40
75615;DHT22;64199;48.578;-4.520;2023-04-24T10:09:18;23.50;53.30
75615;DHT22;64199;48.578;-4.520;2023-04-24T10:11:48;23.50;53.30
75615;DHT22;64199;48.578;-4.520;2023-04-24T10:14:20;23.40;53.20
75615;DHT22;64199;48.578;-4.520;2023-04-24T10:16:46;23.40;53.20
75615;DHT22;64199;48.578;-4.520;2023-04-24T10:19:13;23.40;53.20
75615;DHT22;64199;48.578;-4.520;2023-04-24T10:21:41;23.40;53.20
75615;DHT22;64199;48.578;-4.520;2023-04-24T10:24:14;23.40;53.30
75615;DHT22;64199;48.578;-4.520;2023-04-24T10:26:41;23.40;53.30
75615;DHT22;64199;48.578;-4.520;2023-04-24T10:29:07;23.40;53.30
75615;DHT22;64199;48.578;-4.520;2023-04-24T10:31:36;23.40;53.30
75615;DHT22;64199;48.578;-4.520;2023-04-24T10:34:08;23.30;53.30
75615;DHT22;64199;48.578;-4.520;2023-04-24T10:36:36;23.30;53.30
75615;DHT22;64199;48.578;-4.520;2023-04-24T10:39:05;23.30;53.30
75615;DHT22;64199;48.578;-4.520;2023-04-24T10:41:32;23.20;53.30
75615;DHT22;64199;48.578;-4.520;2023-04-24T10:44:11;23.20;53.30
75615;DHT22;64199;48.578;-4.520;2023-04-24T10:46:38;23.20;53.30
75615;DHT22;64199;48.578;-4.520;2023-04-24T10:49:06;23.20;53.30
75615;DHT22;64199;48.578;-4.520;2023-04-24T10:51:49;23.20;53.30
75615;DHT22;64199;48.578;-4.520;2023-04-24T10:56:55;23.20;53.30
75615;DHT22;64199;48.578;-4.520;2023-04-24T10:59:39;23.20;53.30
75615;DHT22;64199;48.578;-4.520;2023-04-24T11:02:07;23.20;53.30
75615;DHT22;64199;48.578;-4.520;2023-04-24T11:04:34;23.30;53.40
75615;DHT22;64199;48.578;-4.520;2023-04-24T11:07:02;23.40;53.30
75615;DHT22;64199;48.578;-4.520;2023-04-24T11:09:29;23.50;53.30
75615;DHT22;64199;48.578;-4.520;2023-04-24T11:12:06;23.50;53.30
75615;DHT22;64199;48.578;-4.520;2023-04-24T11:17:33;23.60;53.20
75615;DHT22;64199;48.578;-4.520;2023-04-24T11:20:07;23.70;53.10
75615;DHT22;64199;48.578;-4.520;2023-04-24T11:22:36;23.80;53.10
75615;DHT22;64199;48.578;-4.520;2023-04-24T11:25:03;23.90;53.20
75615;DHT22;64199;48.578;-4.520;2023-04-24T11:27:39;23.90;53.20
75615;DHT22;64199;48.578;-4.520;2023-04-24T11:30:06;24.00;53.20
75615;DHT22;64199;48.578;-4.520;2023-04-24T11:32:42;24.10;53.10
75615;DHT22;64199;48.578;-4.520;2023-04-24T11:35:16;24.10;53.00
75615;DHT22;64199;48.578;-4.520;2023-04-24T11:37:44;24.20;53.00
75615;DHT22;64199;48.578;-4.520;2023-04-24T11:40:18;24.20;52.90
75615;DHT22;64199;48.578;-4.520;2023-04-24T11:42:53;24.30;52.90
75615;DHT22;64199;48.578;-4.520;2023-04-24T11:45:24;24.40;52.90
75615;DHT22;64199;48.578;-4.520;2023-04-24T11:47:51;24.40;52.80
75615;DHT22;64199;48.578;-4.520;2023-04-24T11:50:18;24.40;52.80
75615;DHT22;64199;48.578;-4.520;2023-04-24T11:52:47;24.50;52.80
75615;DHT22;64199;48.578;-4.520;2023-04-24T11:57:44;24.60;52.70
75615;DHT22;64199;48.578;-4.520;2023-04-24T12:02:44;24.70;52.60
75615;DHT22;64199;48.578;-4.520;2023-04-24T12:05:24;24.70;52.50
75615;DHT22;64199;48.578;-4.520;2023-04-24T12:07:51;24.80;52.50
75615;DHT22;64199;48.578;-4.520;2023-04-24T12:10:21;24.80;52.40
75615;DHT22;64199;48.578;-4.520;2023-04-24T12:12:48;24.90;52.40
75615;DHT22;64199;48.578;-4.520;2023-04-24T12:15:16;24.90;52.40
75615;DHT22;64199;48.578;-4.520;2023-04-24T12:17:42;24.90;52.40
75615;DHT22;64199;48.578;-4.520;2023-04-24T12:20:09;25.00;52.30
75615;DHT22;64199;48.578;-4.520;2023-04-24T12:22:55;25.00;52.30
75615;DHT22;64199;48.578;-4.520;2023-04-24T12:25:27;25.10;52.30
75615;DHT22;64199;48.578;-4.520;2023-04-24T12:27:55;25.20;52.30
75615;DHT22;64199;48.578;-4.520;2023-04-24T12:30:49;25.20;52.20
75615;DHT22;64199;48.578;-4.520;2023-04-24T12:33:19;25.20;52.10
75615;DHT22;64199;48.578;-4.520;2023-04-24T12:35:45;25.20;52.10
75615;DHT22;64199;48.578;-4.520;2023-04-24T12:38:13;25.30;52.20
75615;DHT22;64199;48.578;-4.520;2023-04-24T12:40:40;25.40;52.20
75615;DHT22;64199;48.578;-4.520;2023-04-24T12:43:17;25.40;52.20
75615;DHT22;64199;48.578;-4.520;2023-04-24T12:45:43;25.40;52.20
75615;DHT22;64199;48.578;-4.520;2023-04-24T12:48:10;25.40;52.20
75615;DHT22;64199;48.578;-4.520;2023-04-24T12:50:37;25.40;52.20
75615;DHT22;64199;48.578;-4.520;2023-04-24T12:53:03;25.40;52.20
75615;DHT22;64199;48.578;-4.520;2023-04-24T12:55:29;25.30;52.10
75615;DHT22;64199;48.578;-4.520;2023-04-24T12:57:54;25.30;52.20
75615;DHT22;64199;48.578;-4.520;2023-04-24T13:00:21;25.20;52.40
75615;DHT22;64199;48.578;-4.520;2023-04-24T13:02:47;25.20;52.30
75615;DHT22;64199;48.578;-4.520;2023-04-24T13:05:13;25.20;52.40
75615;DHT22;64199;48.578;-4.520;2023-04-24T13:07:39;25.10;53.00
75615;DHT22;64199;48.578;-4.520;2023-04-24T13:10:06;25.10;52.50
75615;DHT22;64199;48.578;-4.520;2023-04-24T13:12:32;25.10;52.50
75615;DHT22;64199;48.578;-4.520;2023-04-24T13:14:59;25.10;52.60
75615;DHT22;64199;48.578;-4.520;2023-04-24T13:17:25;25.00;52.50
75615;DHT22;64199;48.578;-4.520;2023-04-24T13:19:51;24.90;52.50
75615;DHT22;64199;48.578;-4.520;2023-04-24T13:22:17;24.90;52.40
75615;DHT22;64199;48.578;-4.520;2023-04-24T13:24:46;24.90;52.40
75615;DHT22;64199;48.578;-4.520;2023-04-24T13:27:14;24.90;52.50
75615;DHT22;64199;48.578;-4.520;2023-04-24T13:29:40;24.80;52.40
75615;DHT22;64199;48.578;-4.520;2023-04-24T13:32:06;24.80;52.40
75615;DHT22;64199;48.578;-4.520;2023-04-24T13:34:32;24.70;52.40
75615;DHT22;64199;48.578;-4.520;2023-04-24T13:36:58;24.70;52.30
75615;DHT22;64199;48.578;-4.520;2023-04-24T13:39:25;24.70;52.40
75615;DHT22;64199;48.578;-4.520;2023-04-24T13:41:52;24.70;52.30
75615;DHT22;64199;48.578;-4.520;2023-04-24T13:44:19;24.70;52.40
75615;DHT22;64199;48.578;-4.520;2023-04-24T13:46:47;24.60;52.30
75615;DHT22;64199;48.578;-4.520;2023-04-24T13:49:14;24.60;52.40
75615;DHT22;64199;48.578;-4.520;2023-04-24T13:51:40;24.60;52.40
75615;DHT22;64199;48.578;-4.520;2023-04-24T13:54:07;24.60;52.50
75615;DHT22;64199;48.578;-4.520;2023-04-24T13:56:33;24.60;52.50
75615;DHT22;64199;48.578;-4.520;2023-04-24T13:58:59;24.60;52.50
75615;DHT22;64199;48.578;-4.520;2023-04-24T14:01:26;24.60;52.50
75615;DHT22;64199;48.578;-4.520;2023-04-24T14:03:52;24.60;52.50
75615;DHT22;64199;48.578;-4.520;2023-04-24T14:06:19;24.50;52.40
75615;DHT22;64199;48.578;-4.520;2023-04-24T14:08:47;24.50;52.50
75615;DHT22;64199;48.578;-4.520;2023-04-24T14:11:14;24.50;52.40
75615;DHT22;64199;48.578;-4.520;2023-04-24T14:13:43;24.50;52.40
75615;DHT22;64199;48.578;-4.520;2023-04-24T14:16:10;24.50;52.30
75615;DHT22;64199;48.578;-4.520;2023-04-24T14:18:36;24.50;52.40
75615;DHT22;64199;48.578;-4.520;2023-04-24T14:21:03;24.40;52.40
75615;DHT22;64199;48.578;-4.520;2023-04-24T14:23:29;24.40;52.40
75615;DHT22;64199;48.578;-4.520;2023-04-24T14:25:56;24.40;52.40
75615;DHT22;64199;48.578;-4.520;2023-04-24T14:28:22;24.40;52.50
75615;DHT22;64199;48.578;-4.520;2023-04-24T14:30:48;24.40;52.50
75615;DHT22;64199;48.578;-4.520;2023-04-24T14:33:14;24.40;52.50
75615;DHT22;64199;48.578;-4.520;2023-04-24T14:35:41;24.40;52.60
75615;DHT22;64199;48.578;-4.520;2023-04-24T14:38:10;24.40;52.60
75615;DHT22;64199;48.578;-4.520;2023-04-24T14:40:37;24.40;52.70
75615;DHT22;64199;48.578;-4.520;2023-04-24T14:43:03;24.40;52.60
75615;DHT22;64199;48.578;-4.520;2023-04-24T14:45:29;24.40;52.50
75615;DHT22;64199;48.578;-4.520;2023-04-24T14:47:55;24.30;52.50
75615;DHT22;64199;48.578;-4.520;2023-04-24T14:50:21;24.30;52.40
75615;DHT22;64199;48.578;-4.520;2023-04-24T14:52:47;24.30;52.40
75615;DHT22;64199;48.578;-4.520;2023-04-24T14:55:13;24.30;52.40
75615;DHT22;64199;48.578;-4.520;2023-04-24T14:57:40;24.30;52.40
75615;DHT22;64199;48.578;-4.520;2023-04-24T15:00:07;24.30;52.40
75615;DHT22;64199;48.578;-4.520;2023-04-24T15:02:34;24.30;52.50
75615;DHT22;64199;48.578;-4.520;2023-04-24T15:05:03;24.30;52.40
75615;DHT22;64199;48.578;-4.520;2023-04-24T15:07:29;24.30;52.50
75615;DHT22;64199;48.578;-4.520;2023-04-24T15:09:56;24.20;52.30
75615;DHT22;64199;48.578;-4.520;2023-04-24T15:12:22;24.30;52.40
75615;DHT22;64199;48.578;-4.520;2023-04-24T15:14:48;24.20;52.40
75615;DHT22;64199;48.578;-4.520;2023-04-24T15:17:14;24.20;52.40
75615;DHT22;64199;48.578;-4.520;2023-04-24T15:19:40;24.20;52.50
75615;DHT22;64199;48.578;-4.520;2023-04-24T15:22:05;24.20;52.50
75615;DHT22;64199;48.578;-4.520;2023-04-24T15:24:31;24.20;52.50
75615;DHT22;64199;48.578;-4.520;2023-04-24T15:26:59;24.20;52.50